Time;durP1;ratioP1;P1;durP2;ratioP2;P2;SDS_P1;SDS_P2;PMS_P1;PMS_P2;Temp;Humidity;BMP_temperature;BMP_pressure;BME280_temperature;BME280_humidity;BME280_pressure;Samples;Min_cycle;Max_cycle;Signal;HPM_P1;HPM_P2
2022/12/04 00:02:03;;;;;;;;;;;5.30;99.90;;;;;;5013245;28;19988;-77
2022/12/04 00:04:29;;;;;;;;;;;5.20;99.90;;;;;;5012178;28;20337;-77
2022/12/04 00:06:54;;;;;;;;;;;5.20;99.90;;;;;;5013667;28;19920;-82
2022/12/04 00:09:20;;;;;;;;;;;5.20;99.90;;;;;;5013710;28;19913;-78
2022/12/04 00:11:46;;;;;;;;;;;5.30;99.90;;;;;;5013207;28;20013;-79
2022/12/04 00:14:11;;;;;;;;;;;5.20;99.90;;;;;;5012559;28;19910;-78
2022/12/04 00:16:37;;;;;;;;;;;5.30;99.90;;;;;;5013301;28;19973;-77
2022/12/04 00:19:02;;;;;;;;;;;5.30;99.90;;;;;;5012517;28;20260;-78
2022/12/04 00:21:28;;;;;;;;;;;5.20;99.90;;;;;;5012852;28;19957;-77
2022/12/04 00:23:54;;;;;;;;;;;5.20;99.90;;;;;;5013293;28;20296;-81
2022/12/04 00:26:21;;;;;;;;;;;5.20;99.90;;;;;;5012966;28;19916;-78
2022/12/04 00:28:47;;;;;;;;;;;5.20;99.90;;;;;;5012925;28;19944;-79
2022/12/04 00:31:14;;;;;;;;;;;5.10;99.90;;;;;;5012561;28;20125;-78
2022/12/04 00:33:40;;;;;;;;;;;5.10;99.90;;;;;;5012771;28;19910;-78
2022/12/04 00:36:07;;;;;;;;;;;5.10;99.90;;;;;;5012908;28;20250;-81
2022/12/04 00:38:33;;;;;;;;;;;5.10;99.90;;;;;;5012879;28;20375;-78
2022/12/04 00:41:02;;;;;;;;;;;5.00;99.90;;;;;;5012674;28;20398;-78
2022/12/04 00:43:28;;;;;;;;;;;5.00;99.90;;;;;;5012967;28;19952;-79
2022/12/04 00:45:53;;;;;;;;;;;4.90;99.90;;;;;;5013001;28;19978;-77
2022/12/04 00:48:19;;;;;;;;;;;4.90;99.90;;;;;;5012645;28;19910;-78
2022/12/04 00:50:44;;;;;;;;;;;4.90;99.90;;;;;;5012728;28;20381;-77
2022/12/04 00:53:10;;;;;;;;;;;4.80;99.90;;;;;;5012590;28;19920;-77
2022/12/04 00:55:37;;;;;;;;;;;4.80;99.90;;;;;;5012875;28;19960;-77
2022/12/04 00:58:03;;;;;;;;;;;4.80;99.90;;;;;;5012166;28;19920;-78
2022/12/04 01:00:29;;;;;;;;;;;4.90;99.90;;;;;;5013067;28;19916;-78
2022/12/04 01:02:55;;;;;;;;;;;4.90;99.90;;;;;;5012787;28;19925;-82
2022/12/04 01:05:22;;;;;;;;;;;5.00;99.90;;;;;;5012625;28;19910;-79
2022/12/04 01:07:47;;;;;;;;;;;5.10;99.90;;;;;;5012870;28;19956;-79
2022/12/04 01:10:13;;;;;;;;;;;5.20;99.90;;;;;;5012096;28;19956;-77
2022/12/04 01:12:38;;;;;;;;;;;5.40;99.90;;;;;;5013117;28;19921;-77
2022/12/04 01:15:04;;;;;;;;;;;5.60;99.90;;;;;;5011193;28;19944;-77
2022/12/04 01:17:30;;;;;;;;;;;5.70;99.90;;;;;;5012464;28;19917;-78
2022/12/04 01:19:55;;;;;;;;;;;5.90;99.90;;;;;;5014231;28;19971;-81
2022/12/04 01:22:21;;;;;;;;;;;6.00;99.90;;;;;;5012135;28;19916;-77
2022/12/04 01:24:46;;;;;;;;;;;6.10;99.90;;;;;;5013347;28;19931;-77
2022/12/04 01:27:12;;;;;;;;;;;6.20;99.90;;;;;;5010786;28;19921;-76
2022/12/04 01:29:43;;;;;;;;;;;6.30;99.90;;;;;;5012716;28;19955;-78
2022/12/04 01:32:09;;;;;;;;;;;6.40;99.90;;;;;;5016269;28;20120;-77
2022/12/04 01:34:35;;;;;;;;;;;6.40;99.90;;;;;;5034880;28;19917;-77
2022/12/04 01:37:00;;;;;;;;;;;6.50;99.90;;;;;;5035304;28;19989;-78
2022/12/04 01:39:26;;;;;;;;;;;6.50;99.90;;;;;;5035279;28;19943;-78
2022/12/04 01:41:51;;;;;;;;;;;6.60;99.90;;;;;;5033961;28;19912;-79
2022/12/04 01:44:17;;;;;;;;;;;6.70;99.90;;;;;;5035365;28;19909;-79
2022/12/04 01:46:49;;;;;;;;;;;6.70;99.90;;;;;;5035834;28;19981;-78
2022/12/04 01:49:17;;;;;;;;;;;6.80;99.90;;;;;;5035331;28;19914;-79
2022/12/04 01:51:45;;;;;;;;;;;6.90;99.90;;;;;;5031507;28;19921;-77
2022/12/04 01:54:13;;;;;;;;;;;6.90;99.90;;;;;;5018066;28;19910;-77
2022/12/04 01:56:42;;;;;;;;;;;7.00;99.90;;;;;;5018869;28;19920;-78
2022/12/04 01:59:08;;;;;;;;;;;7.00;99.90;;;;;;5015119;28;20004;-78
2022/12/04 02:01:37;;;;;;;;;;;7.10;99.90;;;;;;5015703;28;20251;-78
2022/12/04 02:04:02;;;;;;;;;;;7.10;99.90;;;;;;5015631;28;19936;-78
2022/12/04 02:06:28;;;;;;;;;;;7.10;99.90;;;;;;5015029;28;19914;-78
2022/12/04 02:08:54;;;;;;;;;;;7.10;99.90;;;;;;5014526;28;19913;-78
2022/12/04 02:11:25;;;;;;;;;;;7.10;99.90;;;;;;5014082;28;19913;-78
2022/12/04 02:13:51;;;;;;;;;;;7.20;99.90;;;;;;5013376;28;20326;-78
2022/12/04 02:16:35;;;;;;;;;;;7.20;99.90;;;;;;5013919;28;19936;-78
2022/12/04 02:19:00;;;;;;;;;;;7.10;99.90;;;;;;5012892;28;19920;-80
2022/12/04 02:21:33;;;;;;;;;;;7.20;99.90;;;;;;5013348;28;19910;-79
2022/12/04 02:23:59;;;;;;;;;;;7.20;99.90;;;;;;5013526;28;19937;-81
2022/12/04 02:26:43;;;;;;;;;;;7.20;99.90;;;;;;5012787;28;19909;-79
2022/12/04 02:29:24;;;;;;;;;;;7.20;99.90;;;;;;5012618;28;19909;-78
2022/12/04 02:31:53;;;;;;;;;;;7.20;99.90;;;;;;5012871;28;19969;-78
2022/12/04 02:34:24;;;;;;;;;;;7.20;99.90;;;;;;5015880;28;20062;-79
2022/12/04 02:36:52;;;;;;;;;;;7.20;99.90;;;;;;5016789;28;19914;-79
2022/12/04 02:39:22;;;;;;;;;;;7.20;99.90;;;;;;5016760;28;19917;-78
2022/12/04 02:41:52;;;;;;;;;;;7.10;99.90;;;;;;5017008;28;19910;-79
2022/12/04 02:44:24;;;;;;;;;;;7.10;99.90;;;;;;5016274;28;20263;-79
2022/12/04 02:46:53;;;;;;;;;;;7.20;99.90;;;;;;5015174;28;19983;-80
2022/12/04 02:49:22;;;;;;;;;;;7.20;99.90;;;;;;5016637;28;19909;-79
2022/12/04 02:51:48;;;;;;;;;;;7.30;99.90;;;;;;5016646;28;19914;-78
2022/12/04 02:54:31;;;;;;;;;;;7.30;99.90;;;;;;5016854;28;20375;-79
2022/12/04 02:56:57;;;;;;;;;;;7.20;99.90;;;;;;5017153;28;19920;-78
2022/12/04 02:59:29;;;;;;;;;;;7.30;99.90;;;;;;5014783;28;19936;-80
2022/12/04 03:01:56;;;;;;;;;;;7.30;99.90;;;;;;5016048;28;20454;-79
2022/12/04 03:04:24;;;;;;;;;;;7.30;99.90;;;;;;5016239;28;20047;-79
2022/12/04 03:06:54;;;;;;;;;;;7.30;99.90;;;;;;5016384;28;19920;-79
2022/12/04 03:09:26;;;;;;;;;;;7.30;99.90;;;;;;5016095;28;19909;-78
2022/12/04 03:11:55;;;;;;;;;;;7.30;99.90;;;;;;5014233;28;20059;-79
2022/12/04 03:14:23;;;;;;;;;;;7.30;99.90;;;;;;5015545;28;19914;-78
2022/12/04 03:16:51;;;;;;;;;;;7.30;99.90;;;;;;5015909;28;19909;-78
2022/12/04 03:19:35;;;;;;;;;;;7.30;99.90;;;;;;5015412;28;19913;-79
2022/12/04 03:22:09;;;;;;;;;;;7.30;99.90;;;;;;5015531;28;20375;-78
2022/12/04 03:24:41;;;;;;;;;;;7.40;99.90;;;;;;5015648;28;19936;-77
2022/12/04 03:27:15;;;;;;;;;;;7.40;99.90;;;;;;5015157;28;19921;-78
2022/12/04 03:29:44;;;;;;;;;;;7.40;99.90;;;;;;5015060;28;20012;-78
2022/12/04 03:32:12;;;;;;;;;;;7.50;99.90;;;;;;5013239;28;20359;-78
2022/12/04 03:34:47;;;;;;;;;;;7.50;99.90;;;;;;5015477;28;20369;-78
2022/12/04 03:37:14;;;;;;;;;;;7.50;99.90;;;;;;5014629;28;19921;-78
2022/12/04 03:39:54;;;;;;;;;;;7.50;99.90;;;;;;5015163;28;20282;-78
2022/12/04 03:42:22;;;;;;;;;;;7.50;99.90;;;;;;5014727;28;19909;-81
2022/12/04 03:44:53;;;;;;;;;;;7.50;99.90;;;;;;5014841;28;19964;-80
2022/12/04 03:47:45;;;;;;;;;;;7.40;99.90;;;;;;5014665;28;19999;-78
2022/12/04 03:50:29;;;;;;;;;;;7.40;99.90;;;;;;5012104;28;19929;-79
2022/12/04 03:52:54;;;;;;;;;;;7.40;99.90;;;;;;5015126;28;20043;-79
2022/12/04 03:55:20;;;;;;;;;;;7.40;99.90;;;;;;5014778;28;20427;-78
2022/12/04 03:57:46;;;;;;;;;;;7.40;99.90;;;;;;5014931;28;20040;-78
2022/12/04 04:00:12;;;;;;;;;;;7.40;99.90;;;;;;5014433;28;19957;-78
2022/12/04 04:02:45;;;;;;;;;;;7.40;99.90;;;;;;5015075;28;19910;-77
2022/12/04 04:05:11;;;;;;;;;;;7.40;99.90;;;;;;5014708;28;19921;-79
2022/12/04 04:07:40;;;;;;;;;;;7.40;99.90;;;;;;5014410;28;19941;-78
2022/12/04 04:10:10;;;;;;;;;;;7.40;99.90;;;;;;5014681;28;19918;-82
2022/12/04 04:12:37;;;;;;;;;;;7.40;99.90;;;;;;5014451;28;19964;-79
2022/12/04 04:26:07;;;;;;;;;;;7.40;99.90;;;;;;5013635;28;19952;-81
2022/12/04 04:28:35;;;;;;;;;;;7.40;99.90;;;;;;5013293;28;19962;-78
2022/12/04 04:31:06;;;;;;;;;;;7.40;99.90;;;;;;5013907;28;19917;-78
2022/12/04 04:33:34;;;;;;;;;;;7.40;99.90;;;;;;5012286;28;20343;-79
2022/12/04 04:36:39;;;;;;;;;;;7.40;99.90;;;;;;5013714;28;19933;-79
2022/12/04 04:39:04;;;;;;;;;;;7.50;99.90;;;;;;4972758;28;19918;-79
2022/12/04 04:41:30;;;;;;;;;;;7.50;99.90;;;;;;4972157;28;19911;-79
2022/12/04 04:43:58;;;;;;;;;;;7.50;99.90;;;;;;4972276;28;20003;-78
2022/12/04 04:46:32;;;;;;;;;;;7.50;99.90;;;;;;4972096;28;20024;-78
2022/12/04 04:49:00;;;;;;;;;;;7.50;99.90;;;;;;4972430;28;20001;-78
2022/12/04 04:51:27;;;;;;;;;;;7.50;99.90;;;;;;4971638;28;19930;-78
2022/12/04 04:53:57;;;;;;;;;;;7.40;99.90;;;;;;4972061;28;19918;-77
2022/12/04 04:56:23;;;;;;;;;;;7.40;99.90;;;;;;4970942;28;19992;-79
2022/12/04 04:58:49;;;;;;;;;;;7.40;99.90;;;;;;4971654;28;19910;-79
2022/12/04 05:01:17;;;;;;;;;;;7.40;99.90;;;;;;4971585;28;20004;-79
2022/12/04 05:03:42;;;;;;;;;;;7.40;99.90;;;;;;4971944;28;19954;-78
2022/12/04 05:06:08;;;;;;;;;;;7.40;99.90;;;;;;4971748;28;20511;-78
2022/12/04 05:08:34;;;;;;;;;;;7.40;99.90;;;;;;4971484;28;19914;-78
2022/12/04 05:10:59;;;;;;;;;;;7.50;99.90;;;;;;5011020;28;19933;-78
2022/12/04 05:13:26;;;;;;;;;;;7.50;99.90;;;;;;5012674;28;20405;-79
2022/12/04 05:15:56;;;;;;;;;;;7.50;99.90;;;;;;5012569;28;19910;-78
2022/12/04 05:18:21;;;;;;;;;;;7.50;99.90;;;;;;5012548;28;20021;-79
2022/12/04 05:20:47;;;;;;;;;;;7.40;99.90;;;;;;5011590;28;19953;-78
2022/12/04 05:23:12;;;;;;;;;;;7.50;99.90;;;;;;5012504;28;19913;-81
2022/12/04 05:25:38;;;;;;;;;;;7.50;99.90;;;;;;5013044;28;19945;-78
2022/12/04 05:28:04;;;;;;;;;;;7.50;99.90;;;;;;5012517;28;19909;-78
2022/12/04 05:30:29;;;;;;;;;;;7.50;99.90;;;;;;5012222;28;20022;-77
2022/12/04 05:32:55;;;;;;;;;;;7.50;99.90;;;;;;5012496;28;19925;-77
2022/12/04 05:35:20;;;;;;;;;;;7.50;99.90;;;;;;5012390;28;20363;-78
2022/12/04 05:37:46;;;;;;;;;;;7.50;99.90;;;;;;5012749;28;19917;-77
2022/12/04 05:40:11;;;;;;;;;;;7.60;99.90;;;;;;5012575;28;19956;-80
2022/12/04 05:42:37;;;;;;;;;;;7.60;99.90;;;;;;5011405;28;19910;-78
2022/12/04 05:45:03;;;;;;;;;;;7.50;99.90;;;;;;5011825;28;20363;-79
2022/12/04 05:47:28;;;;;;;;;;;7.50;99.90;;;;;;5010522;28;19993;-77
2022/12/04 05:49:54;;;;;;;;;;;7.60;99.90;;;;;;5012016;28;19917;-77
2022/12/04 05:52:19;;;;;;;;;;;7.50;99.90;;;;;;5011909;28;19917;-78
2022/12/04 05:54:45;;;;;;;;;;;7.50;99.90;;;;;;5012644;28;19917;-78
2022/12/04 05:57:10;;;;;;;;;;;7.50;99.90;;;;;;5011957;28;20388;-78
2022/12/04 05:59:36;;;;;;;;;;;7.40;99.90;;;;;;5011743;28;19921;-77
2022/12/04 06:02:02;;;;;;;;;;;7.40;99.90;;;;;;5012450;28;19927;-77
2022/12/04 06:04:27;;;;;;;;;;;7.30;99.90;;;;;;5010325;28;20278;-78
2022/12/04 06:06:53;;;;;;;;;;;7.20;99.90;;;;;;5011827;28;19968;-77
2022/12/04 06:09:19;;;;;;;;;;;7.20;99.90;;;;;;5011240;28;19916;-78
2022/12/04 06:11:45;;;;;;;;;;;7.10;99.90;;;;;;5011909;28;20016;-78
2022/12/04 06:14:11;;;;;;;;;;;7.10;99.90;;;;;;5009961;28;19909;-78
2022/12/04 06:16:38;;;;;;;;;;;7.00;99.90;;;;;;5011429;28;20008;-78
2022/12/04 06:19:09;;;;;;;;;;;7.00;99.90;;;;;;5011345;28;19920;-78
2022/12/04 06:21:35;;;;;;;;;;;6.90;99.90;;;;;;5010045;28;20505;-79
2022/12/04 06:24:02;;;;;;;;;;;6.90;99.90;;;;;;5011501;28;20410;-78
2022/12/04 06:26:27;;;;;;;;;;;6.90;99.90;;;;;;5011868;28;19909;-79
2022/12/04 06:28:55;;;;;;;;;;;6.90;99.90;;;;;;5011544;28;20279;-77
2022/12/04 06:31:21;;;;;;;;;;;6.80;99.90;;;;;;5010681;28;19928;-77
2022/12/04 06:33:47;;;;;;;;;;;6.70;99.90;;;;;;5011520;28;20004;-77
2022/12/04 06:36:15;;;;;;;;;;;6.70;99.90;;;;;;5011248;28;19913;-77
2022/12/04 06:38:41;;;;;;;;;;;6.70;99.90;;;;;;5009293;28;19910;-77
2022/12/04 06:41:08;;;;;;;;;;;6.60;99.90;;;;;;5016911;28;20075;-77
2022/12/04 06:43:34;;;;;;;;;;;6.70;99.90;;;;;;5033663;28;19929;-78
2022/12/04 06:45:59;;;;;;;;;;;6.70;99.90;;;;;;5034038;28;19937;-77
2022/12/04 06:48:27;;;;;;;;;;;6.60;99.90;;;;;;5034829;28;19909;-79
2022/12/04 06:51:04;;;;;;;;;;;6.60;99.90;;;;;;5034935;28;19917;-77
2022/12/04 06:53:31;;;;;;;;;;;6.60;99.90;;;;;;5032402;28;19913;-79
2022/12/04 06:55:57;;;;;;;;;;;6.60;99.90;;;;;;5024712;28;19996;-79
2022/12/04 06:58:23;;;;;;;;;;;6.60;99.90;;;;;;5011465;28;20000;-79
2022/12/04 07:00:49;;;;;;;;;;;6.50;99.90;;;;;;5012167;28;19945;-78
2022/12/04 07:03:14;;;;;;;;;;;6.40;99.90;;;;;;5011857;28;19909;-78
2022/12/04 07:05:40;;;;;;;;;;;6.30;99.90;;;;;;5011029;28;20052;-78
2022/12/04 07:08:05;;;;;;;;;;;6.20;99.90;;;;;;5011201;28;19917;-78
2022/12/04 07:10:31;;;;;;;;;;;6.10;99.90;;;;;;5010835;28;19960;-79
2022/12/04 07:12:56;;;;;;;;;;;6.10;99.90;;;;;;5010812;28;19914;-78
2022/12/04 07:15:22;;;;;;;;;;;6.10;99.90;;;;;;5010693;28;19913;-79
2022/12/04 07:17:48;;;;;;;;;;;6.00;99.90;;;;;;5010884;28;19909;-78
2022/12/04 07:20:13;;;;;;;;;;;6.00;99.90;;;;;;5010575;28;20000;-78
2022/12/04 07:22:39;;;;;;;;;;;6.00;99.90;;;;;;5014613;28;19933;-77
2022/12/04 07:25:04;;;;;;;;;;;6.10;99.90;;;;;;5013134;28;19910;-76
2022/12/04 07:27:30;;;;;;;;;;;6.10;99.90;;;;;;5014118;28;19936;-79
2022/12/04 07:29:56;;;;;;;;;;;6.00;99.90;;;;;;5014471;28;19923;-79
2022/12/04 07:32:21;;;;;;;;;;;5.90;99.90;;;;;;5014005;28;19968;-85
2022/12/04 07:34:47;;;;;;;;;;;6.00;99.90;;;;;;5014701;28;20445;-83
2022/12/04 07:37:12;;;;;;;;;;;5.90;99.90;;;;;;5014303;28;19921;-82
2022/12/04 07:39:38;;;;;;;;;;;5.90;99.90;;;;;;5014268;28;19913;-81
2022/12/04 07:42:03;;;;;;;;;;;5.90;99.90;;;;;;5014082;28;20220;-83
2022/12/04 07:44:30;;;;;;;;;;;5.90;99.90;;;;;;5013993;28;19909;-83
2022/12/04 07:46:56;;;;;;;;;;;5.90;99.90;;;;;;5013969;28;20032;-83
2022/12/04 07:49:22;;;;;;;;;;;5.80;99.90;;;;;;5014167;28;20000;-84
2022/12/04 07:51:47;;;;;;;;;;;5.80;99.90;;;;;;5012377;28;19966;-84
2022/12/04 07:54:13;;;;;;;;;;;5.70;99.90;;;;;;5013840;28;20298;-83
2022/12/04 07:56:38;;;;;;;;;;;5.70;99.90;;;;;;5013317;28;19909;-84
2022/12/04 07:59:04;;;;;;;;;;;5.70;99.90;;;;;;5013877;28;19965;-82
2022/12/04 08:01:30;;;;;;;;;;;5.70;99.90;;;;;;5012180;28;19910;-85
2022/12/04 08:03:56;;;;;;;;;;;5.70;99.90;;;;;;5012668;28;19996;-82
2022/12/04 08:06:22;;;;;;;;;;;5.70;99.90;;;;;;5013544;28;19941;-83
2022/12/04 08:08:48;;;;;;;;;;;5.70;99.90;;;;;;5013782;28;19909;-81
2022/12/04 08:11:15;;;;;;;;;;;5.60;99.90;;;;;;5013541;28;19917;-80
2022/12/04 08:13:40;;;;;;;;;;;5.70;99.90;;;;;;5013609;28;20032;-81
2022/12/04 08:16:07;;;;;;;;;;;5.70;99.90;;;;;;5014065;28;20017;-83
2022/12/04 08:18:32;;;;;;;;;;;5.70;99.90;;;;;;5013960;28;19979;-91
2022/12/04 08:21:09;;;;;;;;;;;5.60;99.90;;;;;;5013889;28;19909;-87
2022/12/04 08:23:35;;;;;;;;;;;5.60;99.90;;;;;;5015897;28;19909;-90
2022/12/04 08:26:00;;;;;;;;;;;5.40;99.90;;;;;;5023336;28;19909;-89
2022/12/04 08:28:26;;;;;;;;;;;5.30;99.90;;;;;;5012973;28;19910;-90
2022/12/04 08:30:52;;;;;;;;;;;5.30;99.90;;;;;;5013514;28;19926;-81
2022/12/04 08:33:17;;;;;;;;;;;5.30;99.90;;;;;;5013679;28;19916;-79
2022/12/04 08:35:43;;;;;;;;;;;5.20;99.90;;;;;;5012382;28;19910;-80
2022/12/04 08:38:09;;;;;;;;;;;5.20;99.90;;;;;;5012913;28;19956;-80
2022/12/04 08:40:34;;;;;;;;;;;5.20;99.90;;;;;;5012810;28;20369;-80
2022/12/04 08:43:00;;;;;;;;;;;5.20;99.90;;;;;;5012887;28;19909;-79
2022/12/04 08:45:25;;;;;;;;;;;5.20;99.90;;;;;;5012612;28;19914;-82
2022/12/04 08:47:51;;;;;;;;;;;5.20;99.90;;;;;;5012489;28;20260;-79
2022/12/04 08:50:17;;;;;;;;;;;5.30;99.90;;;;;;5012684;28;19914;-79
2022/12/04 08:52:42;;;;;;;;;;;5.30;99.90;;;;;;5012433;28;19936;-79
2022/12/04 08:55:08;;;;;;;;;;;5.40;99.90;;;;;;5013054;28;19922;-83
2022/12/04 08:57:33;;;;;;;;;;;5.50;99.90;;;;;;5013457;28;20374;-81
2022/12/04 08:59:59;;;;;;;;;;;5.50;99.90;;;;;;5011753;28;19909;-79
2022/12/04 09:02:25;;;;;;;;;;;5.60;99.90;;;;;;5013068;28;20290;-79
2022/12/04 09:04:50;;;;;;;;;;;5.60;99.90;;;;;;5012250;28;19917;-81
2022/12/04 09:07:16;;;;;;;;;;;5.60;99.90;;;;;;5012460;28;19981;-81
2022/12/04 09:09:41;;;;;;;;;;;5.70;99.90;;;;;;5012096;28;19996;-81
2022/12/04 09:12:07;;;;;;;;;;;5.70;99.90;;;;;;5010702;28;19914;-80
2022/12/04 09:14:32;;;;;;;;;;;5.70;99.90;;;;;;5011931;28;19917;-80
2022/12/04 09:16:58;;;;;;;;;;;5.70;99.90;;;;;;5012240;28;20397;-80
2022/12/04 09:19:23;;;;;;;;;;;5.80;99.90;;;;;;5012524;28;20047;-79
2022/12/04 09:21:49;;;;;;;;;;;5.70;99.90;;;;;;5010546;28;19916;-79
2022/12/04 09:24:15;;;;;;;;;;;5.80;99.90;;;;;;5012345;28;19910;-78
2022/12/04 09:26:40;;;;;;;;;;;5.70;99.90;;;;;;5011950;28;19916;-78
2022/12/04 09:29:06;;;;;;;;;;;5.70;99.90;;;;;;5012251;28;19910;-78
2022/12/04 09:31:32;;;;;;;;;;;5.70;99.90;;;;;;5011558;28;19921;-79
2022/12/04 09:33:58;;;;;;;;;;;5.80;99.90;;;;;;5012175;28;19909;-77
2022/12/04 09:36:24;;;;;;;;;;;5.80;99.90;;;;;;5012043;28;19916;-76
2022/12/04 09:38:50;;;;;;;;;;;5.80;99.90;;;;;;5011698;28;19906;-78
2022/12/04 09:41:34;;;;;;;;;;;5.90;99.90;;;;;;5012270;28;20012;-78
2022/12/04 09:44:07;;;;;;;;;;;5.90;99.90;;;;;;5011474;28;19909;-79
2022/12/04 09:46:35;;;;;;;;;;;5.90;99.90;;;;;;5010093;28;19913;-79
2022/12/04 09:49:03;;;;;;;;;;;6.00;99.90;;;;;;5011787;28;19914;-78
2022/12/04 09:51:31;;;;;;;;;;;6.00;99.90;;;;;;5011729;28;19913;-83
2022/12/04 09:53:59;;;;;;;;;;;6.00;99.90;;;;;;5010162;28;19914;-78
2022/12/04 09:56:27;;;;;;;;;;;6.10;99.90;;;;;;5011762;28;19929;-78
2022/12/04 09:58:58;;;;;;;;;;;6.10;99.90;;;;;;5011243;28;20008;-80
2022/12/04 10:01:24;;;;;;;;;;;6.10;99.90;;;;;;5012123;28;20354;-81
2022/12/04 10:03:51;;;;;;;;;;;6.10;99.90;;;;;;5010468;28;19909;-79
2022/12/04 10:06:28;;;;;;;;;;;6.10;99.90;;;;;;5012271;28;20271;-79
2022/12/04 10:09:23;;;;;;;;;;;6.10;99.90;;;;;;5011421;28;19909;-81
2022/12/04 10:12:07;;;;;;;;;;;6.10;99.90;;;;;;5000589;28;19914;-81
2022/12/04 10:14:33;;;;;;;;;;;6.10;99.90;;;;;;5011555;28;19918;-82
2022/12/04 10:16:58;;;;;;;;;;;6.10;99.90;;;;;;5011266;28;19910;-80
2022/12/04 10:19:59;;;;;;;;;;;6.20;99.90;;;;;;5010847;28;20004;-80
2022/12/04 10:22:31;;;;;;;;;;;6.20;99.90;;;;;;4969591;28;19910;-81
2022/12/04 10:25:00;;;;;;;;;;;6.30;99.90;;;;;;5004424;28;19910;-79
2022/12/04 10:27:32;;;;;;;;;;;6.30;99.90;;;;;;5011377;28;20051;-83
2022/12/04 10:29:59;;;;;;;;;;;6.20;99.90;;;;;;5010634;28;19932;-83
2022/12/04 10:32:27;;;;;;;;;;;6.20;99.90;;;;;;5011951;28;19984;-82
2022/12/04 10:34:55;;;;;;;;;;;6.10;99.90;;;;;;5011588;28;19913;-85
2022/12/04 10:37:21;;;;;;;;;;;6.10;99.90;;;;;;5010514;28;19910;-84
2022/12/04 10:39:54;;;;;;;;;;;6.00;99.90;;;;;;5010095;28;20017;-81
2022/12/04 10:42:20;;;;;;;;;;;6.00;99.90;;;;;;5011538;28;19914;-80
2022/12/04 10:44:45;;;;;;;;;;;6.10;99.90;;;;;;5010766;28;20285;-82
2022/12/04 10:47:12;;;;;;;;;;;6.00;99.90;;;;;;5011281;28;19916;-82
2022/12/04 10:49:37;;;;;;;;;;;6.00;99.90;;;;;;5011360;28;19909;-82
2022/12/04 10:52:04;;;;;;;;;;;6.00;99.90;;;;;;5010371;28;19940;-82
2022/12/04 10:54:47;;;;;;;;;;;6.00;99.90;;;;;;5011694;28;19916;-80
2022/12/04 10:57:13;;;;;;;;;;;6.00;99.90;;;;;;5015355;28;19993;-79
2022/12/04 10:59:49;;;;;;;;;;;6.00;99.90;;;;;;5015105;28;19910;-79
2022/12/04 11:02:19;;;;;;;;;;;5.90;99.90;;;;;;5013278;28;20266;-79
2022/12/04 11:04:51;;;;;;;;;;;5.90;99.90;;;;;;5014219;28;19917;-80
2022/12/04 11:07:20;;;;;;;;;;;5.90;99.90;;;;;;5015033;28;19917;-80
2022/12/04 11:09:55;;;;;;;;;;;5.90;99.90;;;;;;5014498;28;20369;-81
2022/12/04 11:12:21;;;;;;;;;;;6.00;99.90;;;;;;5014549;28;19972;-82
2022/12/04 11:14:47;;;;;;;;;;;6.10;99.90;;;;;;5014158;28;20000;-81
2022/12/04 11:17:15;;;;;;;;;;;6.20;99.90;;;;;;5014529;28;19991;-81
2022/12/04 11:19:40;;;;;;;;;;;6.20;99.90;;;;;;5013918;28;19913;-81
2022/12/04 11:22:13;;;;;;;;;;;6.30;99.90;;;;;;5012825;28;19910;-79
2022/12/04 11:24:41;;;;;;;;;;;6.30;99.90;;;;;;5013839;28;19910;-81
2022/12/04 11:27:15;;;;;;;;;;;6.40;99.90;;;;;;5012836;28;19932;-79
2022/12/04 11:29:41;;;;;;;;;;;6.40;99.90;;;;;;5013948;28;20263;-80
2022/12/04 11:32:17;;;;;;;;;;;6.50;99.90;;;;;;5012961;28;20269;-80
2022/12/04 11:34:44;;;;;;;;;;;6.60;99.90;;;;;;5014529;28;19959;-80
2022/12/04 11:37:21;;;;;;;;;;;6.60;99.90;;;;;;5014617;28;19956;-80
2022/12/04 11:39:47;;;;;;;;;;;6.70;99.90;;;;;;5014428;28;19989;-81
2022/12/04 11:42:12;;;;;;;;;;;6.70;99.90;;;;;;5014377;28;19968;-79
2022/12/04 11:44:38;;;;;;;;;;;6.80;99.90;;;;;;5014288;28;20355;-80
2022/12/04 11:47:05;;;;;;;;;;;6.90;99.90;;;;;;5014821;28;19915;-79
2022/12/04 11:49:31;;;;;;;;;;;6.90;99.90;;;;;;5013936;28;20389;-83
2022/12/04 11:52:06;;;;;;;;;;;7.00;99.90;;;;;;5014919;28;19917;-80
2022/12/04 11:54:45;;;;;;;;;;;7.00;99.90;;;;;;5014177;28;19960;-84
2022/12/04 11:57:32;;;;;;;;;;;7.00;99.90;;;;;;5014633;28;19935;-82
2022/12/04 12:00:02;;;;;;;;;;;7.10;99.90;;;;;;5014375;28;20055;-82
2022/12/04 12:02:28;;;;;;;;;;;7.10;99.90;;;;;;5014736;28;20024;-81
2022/12/04 12:05:06;;;;;;;;;;;7.10;99.90;;;;;;5014037;28;19985;-80
2022/12/04 12:07:43;;;;;;;;;;;7.00;99.90;;;;;;5013986;28;19909;-84
2022/12/04 12:10:15;;;;;;;;;;;7.10;99.90;;;;;;5015116;28;20008;-83
2022/12/04 12:12:59;;;;;;;;;;;7.00;99.90;;;;;;5016480;28;19918;-84
2022/12/04 12:15:43;;;;;;;;;;;7.00;99.90;;;;;;5016045;28;19932;-83
2022/12/04 12:18:14;;;;;;;;;;;7.10;99.90;;;;;;5017122;28;19916;-83
2022/12/04 12:20:54;;;;;;;;;;;7.10;99.90;;;;;;5014757;28;19917;-83
2022/12/04 12:23:26;;;;;;;;;;;7.10;99.90;;;;;;5016902;28;19909;-81
2022/12/04 12:25:51;;;;;;;;;;;7.10;99.90;;;;;;5033143;28;19909;-82
2022/12/04 12:28:24;;;;;;;;;;;7.10;99.90;;;;;;5036757;28;19968;-83
2022/12/04 12:31:01;;;;;;;;;;;7.10;99.90;;;;;;5034312;28;19905;-82
2022/12/04 12:33:29;;;;;;;;;;;7.00;99.90;;;;;;5036703;28;19934;-92
2022/12/04 12:36:08;;;;;;;;;;;7.00;99.90;;;;;;5035771;28;19901;-91
2022/12/04 12:38:46;;;;;;;;;;;6.80;99.90;;;;;;5037173;28;19928;-92
2022/12/04 12:41:13;;;;;;;;;;;6.70;99.90;;;;;;5036409;28;19901;-85
2022/12/04 12:43:39;;;;;;;;;;;6.70;99.90;;;;;;5034447;28;19905;-85
2022/12/04 12:46:17;;;;;;;;;;;6.60;99.90;;;;;;5034598;28;20363;-84
2022/12/04 12:49:04;;;;;;;;;;;6.60;99.90;;;;;;5020425;28;19935;-83
2022/12/04 12:51:34;;;;;;;;;;;6.60;99.90;;;;;;5021854;28;19949;-80
2022/12/04 12:54:03;;;;;;;;;;;6.60;99.90;;;;;;5019829;28;20247;-80
2022/12/04 12:56:32;;;;;;;;;;;6.60;99.90;;;;;;5018765;28;19945;-80
2022/12/04 12:58:59;;;;;;;;;;;6.60;99.90;;;;;;5017055;28;20009;-80
2022/12/04 13:01:30;;;;;;;;;;;6.60;99.90;;;;;;5017981;28;19909;-85
2022/12/04 13:04:00;;;;;;;;;;;6.60;99.90;;;;;;5016307;28;19913;-84
2022/12/04 13:06:30;;;;;;;;;;;6.60;99.90;;;;;;5017667;28;19994;-80
2022/12/04 13:09:13;;;;;;;;;;;6.60;99.90;;;;;;5014553;28;20239;-80
2022/12/04 13:11:39;;;;;;;;;;;6.60;99.90;;;;;;5013737;28;19987;-80
2022/12/04 13:14:04;;;;;;;;;;;6.60;99.90;;;;;;5015435;28;19933;-81
2022/12/04 13:16:35;;;;;;;;;;;6.70;99.90;;;;;;5016204;28;20455;-84
2022/12/04 13:19:01;;;;;;;;;;;6.60;99.90;;;;;;5014587;28;20270;-80
2022/12/04 13:21:26;;;;;;;;;;;6.60;99.90;;;;;;5014360;28;19914;-85
2022/12/04 13:24:04;;;;;;;;;;;6.50;99.90;;;;;;5015713;28;19910;-88
2022/12/04 13:26:43;;;;;;;;;;;6.50;99.90;;;;;;5014801;28;19910;-84
2022/12/04 13:29:13;;;;;;;;;;;6.50;99.90;;;;;;5013448;28;19917;-81
2022/12/04 13:31:54;;;;;;;;;;;6.50;99.90;;;;;;5013447;28;19961;-81
2022/12/04 13:34:20;;;;;;;;;;;6.60;99.90;;;;;;5014722;28;19969;-82
2022/12/04 13:36:55;;;;;;;;;;;6.70;99.90;;;;;;5013995;28;19967;-80
2022/12/04 13:39:24;;;;;;;;;;;6.70;99.90;;;;;;5014442;28;20323;-81
2022/12/04 13:42:00;;;;;;;;;;;6.80;99.90;;;;;;5014167;28;20000;-81
2022/12/04 13:44:26;;;;;;;;;;;6.70;99.90;;;;;;5014353;28;19914;-82
2022/12/04 13:47:00;;;;;;;;;;;6.70;99.90;;;;;;5015486;28;20000;-90
2022/12/04 13:49:33;;;;;;;;;;;6.60;99.90;;;;;;5014162;28;19909;-89
2022/12/04 13:51:59;;;;;;;;;;;6.40;99.90;;;;;;5013893;28;19969;-89
2022/12/04 13:54:27;;;;;;;;;;;6.30;99.90;;;;;;5013580;28;20381;-84
2022/12/04 13:57:15;;;;;;;;;;;6.20;99.90;;;;;;5015746;28;20004;-82
2022/12/04 13:59:41;;;;;;;;;;;6.20;99.90;;;;;;5011789;28;20270;-81
2022/12/04 14:02:24;;;;;;;;;;;6.10;99.90;;;;;;5013655;28;20000;-80
2022/12/04 14:04:58;;;;;;;;;;;6.20;99.90;;;;;;5013057;28;19910;-83
2022/12/04 14:07:27;;;;;;;;;;;6.20;99.90;;;;;;5015813;28;19910;-81
2022/12/04 14:09:54;;;;;;;;;;;6.30;99.90;;;;;;5012732;28;20266;-83
2022/12/04 14:12:24;;;;;;;;;;;6.30;99.90;;;;;;5014051;28;19913;-80
2022/12/04 14:15:01;;;;;;;;;;;6.50;99.90;;;;;;5013448;28;19914;-79
2022/12/04 14:17:32;;;;;;;;;;;6.50;99.90;;;;;;5012268;28;20064;-81
2022/12/04 14:19:59;;;;;;;;;;;6.60;99.90;;;;;;5012484;28;20378;-81
2022/12/04 14:22:36;;;;;;;;;;;6.60;99.90;;;;;;5014285;28;20008;-81
2022/12/04 14:25:05;;;;;;;;;;;6.70;99.90;;;;;;5023871;28;19956;-78
2022/12/04 14:27:33;;;;;;;;;;;6.80;99.90;;;;;;5015380;28;19956;-79
2022/12/04 14:30:00;;;;;;;;;;;6.90;99.90;;;;;;5018412;28;19910;-78
2022/12/04 14:32:27;;;;;;;;;;;6.90;99.90;;;;;;5025136;28;20302;-78
2022/12/04 14:34:54;;;;;;;;;;;7.00;99.90;;;;;;5023284;28;20359;-79
2022/12/04 14:37:26;;;;;;;;;;;7.00;99.90;;;;;;5018944;28;19910;-78
2022/12/04 14:39:52;;;;;;;;;;;7.10;99.90;;;;;;5018735;28;19913;-78
2022/12/04 14:42:24;;;;;;;;;;;7.10;99.90;;;;;;5019186;28;20358;-78
2022/12/04 14:44:54;;;;;;;;;;;7.10;99.90;;;;;;5018915;28;19913;-77
2022/12/04 14:47:30;;;;;;;;;;;7.20;99.90;;;;;;5016490;28;20000;-77
2022/12/04 14:49:56;;;;;;;;;;;7.10;99.90;;;;;;5019539;28;19913;-77
2022/12/04 14:52:21;;;;;;;;;;;7.10;99.90;;;;;;5020090;28;20374;-77